Time;durP1;ratioP1;P1;durP2;ratioP2;P2;SDS_P1;SDS_P2;PMS_P1;PMS_P2;Temp;Humidity;BMP_temperature;BMP_pressure;BME280_temperature;BME280_humidity;BME280_pressure;Samples;Min_cycle;Max_cycle;Signal;HPM_P1;HPM_P2
2021/03/20 00:01:36;;;;;;;6.47;4.13;;;1.10;99.90;;;;;;10411271;28;20085;-86
2021/03/20 00:06:44;;;;;;;7.22;3.45;;;1.10;99.90;;;;;;10411508;28;20142;-86
2021/03/20 00:11:47;;;;;;;6.32;3.58;;;1.00;99.90;;;;;;10410993;28;20060;-86
2021/03/20 00:16:49;;;;;;;10.48;3.75;;;1.00;99.90;;;;;;10410684;28;20486;-86
2021/03/20 00:21:51;;;;;;;6.68;3.90;;;1.00;99.90;;;;;;10409513;28;20126;-86
2021/03/20 00:26:52;;;;;;;7.75;3.80;;;0.90;99.90;;;;;;10389924;28;20053;-86
2021/03/20 00:31:54;;;;;;;6.32;3.50;;;0.80;99.90;;;;;;10409111;28;20087;-86
2021/03/20 00:36:56;;;;;;;5.88;3.63;;;0.70;99.90;;;;;;10406805;28;20041;-86
2021/03/20 00:41:57;;;;;;;7.38;3.78;;;0.50;99.90;;;;;;10409555;28;20057;-86
2021/03/20 00:46:58;;;;;;;7.55;3.95;;;0.40;99.90;;;;;;10391143;28;20088;-86
2021/03/20 00:52:00;;;;;;;8.15;4.43;;;0.40;99.90;;;;;;10408674;28;20072;-86
2021/03/20 00:57:02;;;;;;;8.70;4.03;;;0.40;99.90;;;;;;10406605;28;20115;-86
2021/03/20 01:02:03;;;;;;;7.10;4.15;;;0.40;99.90;;;;;;10408014;28;20132;-86
2021/03/20 01:07:05;;;;;;;8.45;4.82;;;0.20;99.90;;;;;;10410068;28;20115;-86
2021/03/20 01:12:07;;;;;;;7.95;5.03;;;0.10;99.90;;;;;;10447776;28;20088;-86
2021/03/20 01:17:08;;;;;;;7.50;4.32;;;0.00;99.90;;;;;;10405918;28;20728;-86
2021/03/20 01:22:10;;;;;;;7.30;3.90;;;-0.10;99.90;;;;;;10390852;28;20139;-86
2021/03/20 01:27:11;;;;;;;6.68;3.80;;;-0.20;99.90;;;;;;10408780;28;20088;-86
2021/03/20 01:32:13;;;;;;;6.22;3.72;;;-0.30;99.90;;;;;;10408462;28;20081;-86
2021/03/20 01:37:14;;;;;;;6.45;3.45;;;-0.30;99.90;;;;;;10408424;28;20450;-86
2021/03/20 01:42:22;;;;;;;5.45;3.42;;;-0.30;99.90;;;;;;10407327;28;20133;-86
2021/03/20 01:47:24;;;;;;;5.35;3.28;;;-0.40;99.90;;;;;;10406643;28;20135;-86
2021/03/20 01:52:29;;;;;;;5.03;3.00;;;-0.50;99.90;;;;;;10408609;28;20103;-86
2021/03/20 01:57:44;;;;;;;6.43;3.42;;;-0.40;99.90;;;;;;10407734;28;20483;-86
2021/03/20 02:02:46;;;;;;;6.15;3.00;;;-0.50;99.90;;;;;;10391390;28;20084;-86
2021/03/20 02:07:49;;;;;;;6.18;3.35;;;-0.50;99.90;;;;;;10389709;28;20152;-86
2021/03/20 02:12:56;;;;;;;5.03;2.95;;;-0.60;99.90;;;;;;10406334;28;20561;-86
2021/03/20 02:18:27;;;;;;;8.20;3.20;;;-0.50;99.90;;;;;;10406989;28;20380;-86
2021/03/20 02:23:59;;;;;;;5.03;3.22;;;-0.60;99.90;;;;;;10390682;28;20081;-86
2021/03/20 02:29:25;;;;;;;5.55;3.65;;;-0.70;99.90;;;;;;10411306;28;20053;-86
2021/03/20 02:34:57;;;;;;;5.45;3.22;;;-0.80;99.90;;;;;;10414083;28;20076;-86
2021/03/20 02:40:32;;;;;;;6.55;3.15;;;-0.80;99.90;;;;;;10417037;28;20106;-86
2021/03/20 02:45:53;;;;;;;4.53;3.05;;;-0.80;99.90;;;;;;10452340;28;20084;-86
2021/03/20 02:51:13;;;;;;;5.65;3.72;;;-0.80;99.90;;;;;;10480852;28;20045;-85
2021/03/20 02:56:23;;;;;;;5.47;3.25;;;-0.80;99.90;;;;;;10456590;28;20048;-86
2021/03/20 03:01:26;;;;;;;7.82;3.63;;;-0.80;99.90;;;;;;10456737;28;20103;-85
2021/03/20 03:06:34;;;;;;;5.75;3.72;;;-0.60;99.90;;;;;;10461608;28;20057;-86
2021/03/20 03:11:58;;;;;;;6.07;3.70;;;-0.60;99.90;;;;;;10444877;28;20128;-86
2021/03/20 03:17:03;;;;;;;6.88;3.50;;;-0.50;99.90;;;;;;10461377;28;20052;-86
2021/03/20 03:22:10;;;;;;;7.00;3.50;;;-0.40;99.90;;;;;;10460854;28;20053;-86
2021/03/20 03:27:14;;;;;;;5.82;3.40;;;-0.30;99.90;;;;;;10461173;28;20053;-86
2021/03/20 03:32:36;;;;;;;5.03;3.35;;;-0.30;99.90;;;;;;10444096;28;20075;-86
2021/03/20 03:37:51;;;;;;;5.13;3.40;;;-0.20;99.90;;;;;;10443157;28;20049;-86
2021/03/20 03:42:52;;;;;;;6.05;3.38;;;-0.20;99.90;;;;;;10460781;28;20073;-86
2021/03/20 03:47:54;;;;;;;5.85;3.60;;;-0.40;99.90;;;;;;10461251;28;20127;-86
2021/03/20 03:52:55;;;;;;;6.13;3.60;;;-0.40;99.90;;;;;;10460719;28;20128;-86
2021/03/20 03:58:24;;;;;;;6.43;3.65;;;-0.50;99.90;;;;;;10460135;28;20075;-86
2021/03/20 04:03:52;;;;;;;5.75;3.47;;;-0.50;99.90;;;;;;10446756;28;20495;-86
2021/03/20 04:09:02;;;;;;;6.35;3.60;;;-0.40;99.90;;;;;;10396335;28;20360;-86
2021/03/20 04:14:22;;;;;;;9.30;3.47;;;-0.30;99.90;;;;;;10411508;28;20087;-86
2021/03/20 04:19:34;;;;;;;5.72;3.40;;;-0.40;99.90;;;;;;10412133;28;20077;-86
2021/03/20 04:24:49;;;;;;;7.45;3.70;;;-0.30;99.90;;;;;;10437430;28;20111;-86
2021/03/20 04:30:12;;;;;;;5.38;3.50;;;-0.20;99.90;;;;;;10453035;28;20088;-86
2021/03/20 04:35:29;;;;;;;7.13;3.60;;;-0.10;99.90;;;;;;10453019;28;20049;-86
2021/03/20 04:40:49;;;;;;;6.35;3.80;;;-0.10;99.90;;;;;;10433007;28;20128;-86
2021/03/20 04:45:56;;;;;;;6.38;3.60;;;-0.10;99.90;;;;;;10434505;28;20107;-86
2021/03/20 04:51:05;;;;;;;4.88;3.33;;;-0.10;99.90;;;;;;10451530;28;20131;-86
2021/03/20 04:56:14;;;;;;;6.18;3.85;;;0.00;99.90;;;;;;10451745;28;20048;-86
2021/03/20 05:01:41;;;;;;;6.47;3.67;;;0.10;99.90;;;;;;10451540;28;20080;-87
2021/03/20 05:06:45;;;;;;;5.90;3.72;;;0.10;99.90;;;;;;10451369;28;20055;-86
2021/03/20 05:12:17;;;;;;;6.20;3.72;;;0.10;99.90;;;;;;10433260;28;20079;-86
2021/03/20 05:17:21;;;;;;;5.63;3.67;;;0.00;99.90;;;;;;10448308;28;20115;-86
2021/03/20 05:22:31;;;;;;;7.70;4.53;;;0.00;99.90;;;;;;10433514;28;20052;-86
2021/03/20 05:27:34;;;;;;;15.80;8.50;;;0.10;99.90;;;;;;10433505;28;20091;-86
2021/03/20 05:32:36;;;;;;;6.95;4.30;;;0.10;99.90;;;;;;10450394;28;20133;-86
2021/03/20 05:37:40;;;;;;;6.95;4.20;;;0.20;99.90;;;;;;10450690;28;20053;-86
2021/03/20 05:42:48;;;;;;;4.82;3.28;;;0.30;99.90;;;;;;10451002;28;20096;-86
2021/03/20 05:48:08;;;;;;;8.52;4.07;;;0.20;99.90;;;;;;10432579;28;20111;-86
2021/03/20 05:53:21;;;;;;;8.52;4.60;;;0.20;99.90;;;;;;10450700;28;20075;-86
2021/03/20 05:58:44;;;;;;;8.20;4.53;;;-0.10;99.90;;;;;;10450398;28;20079;-86
2021/03/20 06:03:59;;;;;;;5.97;4.30;;;-0.30;99.90;;;;;;10458236;28;20190;-86
2021/03/20 06:09:26;;;;;;;6.60;4.65;;;-0.40;99.90;;;;;;10441437;28;20091;-86
2021/03/20 06:14:51;;;;;;;9.10;4.22;;;-0.30;99.90;;;;;;10457601;28;20087;-86
2021/03/20 06:20:15;;;;;;;7.20;4.18;;;-0.20;99.90;;;;;;10457609;28;20052;-86
2021/03/20 06:25:27;;;;;;;8.38;4.75;;;-0.10;99.90;;;;;;10458504;28;20143;-86
2021/03/20 06:30:46;;;;;;;8.30;4.72;;;0.00;99.90;;;;;;10458020;28;20056;-86
2021/03/20 06:35:57;;;;;;;7.45;4.20;;;0.10;99.90;;;;;;10457827;28;20102;-86
2021/03/20 06:41:16;;;;;;;7.70;4.63;;;0.20;99.90;;;;;;10458117;28;20084;-86
2021/03/20 06:46:26;;;;;;;;;;;0.40;99.90;;;;;;10458080;28;20135;-86
2021/03/20 06:51:29;;;;;;;7.53;4.13;;;0.90;99.90;;;;;;10457398;28;19966;-86
2021/03/20 06:56:35;;;;;;;6.97;4.30;;;1.20;99.90;;;;;;10456271;28;20048;-86
2021/03/20 07:01:40;;;;;;;8.52;3.92;;;1.30;99.90;;;;;;10438244;28;20052;-86
2021/03/20 07:07:07;;;;;;;8.35;4.22;;;1.20;99.90;;;;;;10455436;28;20067;-86
2021/03/20 07:12:14;;;;;;;7.53;3.80;;;1.30;99.90;;;;;;10454077;28;20041;-86
2021/03/20 07:17:22;;;;;;;8.45;3.92;;;1.90;99.90;;;;;;10454213;28;20052;-86
2021/03/20 07:22:48;;;;;;;7.00;3.55;;;2.60;99.90;;;;;;10454405;28;20049;-86
2021/03/20 07:27:53;;;;;;;7.90;2.78;;;2.70;99.90;;;;;;10454614;28;20522;-86
2021/03/20 07:32:54;;;;;;;4.85;2.65;;;3.00;98.70;;;;;;10436817;28;20095;-86
2021/03/20 07:38:24;;;;;;;7.18;2.80;;;2.50;98.20;;;;;;10454385;28;20080;-86
2021/03/20 07:43:25;;;;;;;5.75;2.60;;;2.30;96.20;;;;;;10454324;28;20115;-86
2021/03/20 07:48:28;;;;;;;6.72;3.10;;;2.10;96.10;;;;;;10437060;28;20049;-86
2021/03/20 07:53:49;;;;;;;7.35;2.58;;;2.50;95.20;;;;;;10453709;28;20450;-86
2021/03/20 07:59:19;;;;;;;8.50;2.90;;;3.20;95.60;;;;;;10454091;28;20095;-86
2021/03/20 08:04:54;;;;;;;5.93;2.80;;;3.20;94.70;;;;;;10454572;28;20053;-87
2021/03/20 08:10:26;;;;;;;6.82;2.83;;;3.60;91.70;;;;;;10453593;28;20076;-87
2021/03/20 08:15:40;;;;;;;6.70;2.75;;;3.90;81.10;;;;;;10430371;28;20056;-86
2021/03/20 08:20:55;;;;;;;6.00;2.60;;;4.30;85.50;;;;;;10453577;28;20049;-86
2021/03/20 08:26:01;;;;;;;4.50;2.60;;;4.70;81.10;;;;;;10436300;28;20083;-87
2021/03/20 08:31:14;;;;;;;6.15;2.70;;;4.50;75.50;;;;;;10452054;28;20674;-86
2021/03/20 08:36:50;;;;;;;3.90;2.30;;;4.60;72.70;;;;;;10451610;28;20072;-86
2021/03/20 08:42:05;;;;;;;6.40;2.83;;;4.60;75.50;;;;;;10451892;28;20087;-86
2021/03/20 08:47:41;;;;;;;6.63;2.78;;;4.70;72.80;;;;;;10452427;28;20049;-87
2021/03/20 08:53:17;;;;;;;22.23;9.68;;;4.50;75.00;;;;;;10419488;28;20183;-87
2021/03/20 08:58:55;;;;;;;4.70;2.70;;;4.60;73.30;;;;;;10433946;28;20079;-86
2021/03/20 09:04:01;;;;;;;4.95;2.55;;;4.80;73.80;;;;;;10450813;28;20103;-87
2021/03/20 09:09:14;;;;;;;7.35;2.90;;;5.00;70.50;;;;;;10451592;28;20083;-87
2021/03/20 09:14:28;;;;;;;6.50;2.78;;;5.30;70.00;;;;;;10451341;28;20106;-87
2021/03/20 09:19:33;;;;;;;5.72;2.60;;;5.30;64.70;;;;;;10451423;28;20099;-86
2021/03/20 09:24:40;;;;;;;5.82;2.80;;;4.90;66.10;;;;;;10433160;28;20119;-86
2021/03/20 09:30:16;;;;;;;4.47;2.30;;;5.00;65.40;;;;;;10450517;28;20514;-87
2021/03/20 09:35:39;;;;;;;4.47;2.40;;;4.70;59.80;;;;;;10450179;28;20075;-86
2021/03/20 09:40:49;;;;;;;6.60;2.58;;;4.60;59.70;;;;;;10448605;28;20080;-86
2021/03/20 09:46:45;;;;;;;5.35;2.45;;;4.60;60.30;;;;;;10433353;28;20128;-86
2021/03/20 09:57:11;;;;;;;4.57;2.10;;;5.10;57.00;;;;;;10450576;28;20110;-86
2021/03/20 10:02:15;;;;;;;4.15;2.30;;;4.40;56.80;;;;;;10444469;28;20104;-86
2021/03/20 10:07:32;;;;;;;6.00;2.42;;;4.50;55.10;;;;;;10452091;28;20184;-86
2021/03/20 10:13:12;;;;;;;4.43;2.20;;;4.70;55.00;;;;;;10447102;28;20048;-86
2021/03/20 10:18:16;;;;;;;4.78;2.13;;;4.90;54.20;;;;;;10448287;28;20132;-86
2021/03/20 10:23:25;;;;;;;6.45;2.10;;;5.10;52.10;;;;;;10447937;28;20051;-86
2021/03/20 10:28:30;;;;;;;4.20;2.17;;;5.10;50.70;;;;;;10430865;28;20041;-86
2021/03/20 10:33:38;;;;;;;6.72;2.10;;;4.90;51.80;;;;;;10416013;28;20467;-86
2021/03/20 10:38:40;;;;;;;5.75;1.98;;;5.20;50.30;;;;;;10411011;28;20418;-87
2021/03/20 10:43:46;;;;;;;4.85;2.00;;;5.40;49.20;;;;;;10447445;28;20080;-86
2021/03/20 10:48:50;;;;;;;3.33;1.90;;;5.10;48.20;;;;;;10442030;28;20107;-86
2021/03/20 10:54:00;;;;;;;4.45;2.00;;;5.10;48.60;;;;;;10410090;28;20076;-86
2021/03/20 10:59:17;;;;;;;4.45;1.92;;;4.50;48.70;;;;;;10414801;28;20133;-86
2021/03/20 11:04:28;;;;;;;3.05;1.52;;;4.70;49.60;;;;;;10470246;28;20481;-86
2021/03/20 11:09:32;;;;;;;3.40;1.80;;;4.70;44.50;;;;;;10419719;28;20067;-86
2021/03/20 11:14:47;;;;;;;6.28;1.83;;;4.80;48.10;;;;;;10414102;28;20133;-86
2021/03/20 11:20:16;;;;;;;4.75;1.77;;;5.00;46.00;;;;;;10413530;28;21006;-86
2021/03/20 11:25:29;;;;;;;4.10;2.00;;;5.10;44.60;;;;;;10443570;28;20053;-86
2021/03/20 11:30:51;;;;;;;5.00;2.08;;;5.00;46.00;;;;;;10436270;28;20087;-86
2021/03/20 11:35:59;;;;;;;3.50;1.80;;;5.00;48.70;;;;;;10421070;28;20049;-86
2021/03/20 11:41:03;;;;;;;3.47;2.00;;;5.00;47.20;;;;;;10444028;28;20114;-87
2021/03/20 11:46:11;;;;;;;4.03;2.10;;;5.10;47.50;;;;;;10421991;28;20633;-86
2021/03/20 11:51:20;;;;;;;3.90;2.10;;;5.30;46.70;;;;;;10412916;28;20050;-86
2021/03/20 11:56:25;;;;;;;5.70;2.42;;;5.00;46.90;;;;;;10444785;28;20049;-86
2021/03/20 12:01:33;;;;;;;4.22;2.10;;;5.30;48.30;;;;;;10453237;28;20128;-86
2021/03/20 12:06:39;;;;;;;4.13;2.08;;;6.00;48.30;;;;;;10453211;28;20083;-86
2021/03/20 12:11:46;;;;;;;5.03;1.92;;;6.80;47.10;;;;;;10425831;28;20568;-86
2021/03/20 12:16:47;;;;;;;3.80;2.00;;;6.80;44.90;;;;;;10451234;28;20053;-86
2021/03/20 12:22:06;;;;;;;3.47;1.95;;;6.70;44.30;;;;;;10411183;28;20053;-87
2021/03/20 12:27:33;;;;;;;4.70;2.10;;;7.10;46.40;;;;;;10437044;28;20123;-86
2021/03/20 12:32:40;;;;;;;4.05;1.98;;;7.30;44.40;;;;;;10433989;28;20045;-86
2021/03/20 12:38:04;;;;;;;4.68;2.40;;;7.50;44.50;;;;;;10406834;28;20049;-86
2021/03/20 12:43:14;;;;;;;6.22;2.30;;;7.80;43.90;;;;;;10410542;28;20085;-86
2021/03/20 12:48:17;;;;;;;5.22;2.30;;;8.00;44.70;;;;;;10411848;28;20045;-87
2021/03/20 12:53:19;;;;;;;4.13;2.38;;;7.30;43.30;;;;;;10410334;28;20054;-86
2021/03/20 12:58:20;;;;;;;5.82;2.45;;;7.30;43.80;;;;;;10392698;28;20077;-86
2021/03/20 13:03:22;;;;;;;4.32;2.13;;;7.50;43.70;;;;;;10392756;28;20081;-86
2021/03/20 13:08:26;;;;;;;5.55;2.60;;;7.00;43.60;;;;;;10410210;28;20080;-87
2021/03/20 13:13:27;;;;;;;5.63;2.53;;;7.40;44.80;;;;;;10408715;28;20145;-87
2021/03/20 13:18:29;;;;;;;5.65;2.50;;;7.60;45.20;;;;;;10409870;28;20056;-87
2021/03/20 13:23:30;;;;;;;4.43;2.50;;;7.60;44.50;;;;;;10410466;28;20128;-87
2021/03/20 13:28:32;;;;;;;5.00;2.65;;;7.30;43.70;;;;;;10409914;28;20045;-87
2021/03/20 13:33:34;;;;;;;4.53;2.38;;;7.20;43.80;;;;;;10392205;28;20514;-87
2021/03/20 13:38:36;;;;;;;4.85;2.30;;;6.80;44.10;;;;;;10392904;28;20129;-87
2021/03/20 13:43:37;;;;;;;3.78;2.22;;;6.90;43.20;;;;;;10427112;28;20052;-87
2021/03/20 13:48:39;;;;;;;4.38;2.30;;;7.10;46.50;;;;;;10432460;28;20397;-87
2021/03/20 13:53:41;;;;;;;5.03;2.30;;;7.30;44.70;;;;;;10426252;28;20069;-87
2021/03/20 13:58:43;;;;;;;6.13;2.50;;;7.10;43.80;;;;;;10431062;28;20080;-87
2021/03/20 14:03:46;;;;;;;3.95;2.25;;;7.30;44.30;;;;;;10438426;28;20124;-87
2021/03/20 14:08:48;;;;;;;5.30;2.67;;;7.30;43.00;;;;;;10432155;28;20051;-87
2021/03/20 14:13:49;;;;;;;5.15;2.55;;;7.40;43.20;;;;;;10449647;28;20052;-87
2021/03/20 14:18:51;;;;;;;6.82;2.60;;;7.60;43.00;;;;;;10450436;28;20045;-88
2021/03/20 14:23:52;;;;;;;5.57;2.50;;;7.60;45.20;;;;;;10437111;28;20076;-87
2021/03/20 14:28:54;;;;;;;4.35;2.60;;;7.80;43.50;;;;;;10468424;28;20094;-87
2021/03/20 14:33:55;;;;;;;5.03;2.72;;;7.80;43.70;;;;;;10445705;28;20048;-87
2021/03/20 14:38:57;;;;;;;5.07;2.72;;;8.10;43.40;;;;;;10454752;28;20420;-87
2021/03/20 14:43:59;;;;;;;4.32;2.35;;;8.10;43.60;;;;;;10456506;28;20084;-87
2021/03/20 14:49:00;;;;;;;4.32;2.53;;;7.70;41.70;;;;;;10457644;28;20132;-86
2021/03/20 14:54:03;;;;;;;4.32;2.63;;;7.60;44.50;;;;;;10456520;28;20483;-87
2021/03/20 14:59:05;;;;;;;4.07;2.35;;;8.20;42.50;;;;;;10438728;28;20092;-87
2021/03/20 15:04:06;;;;;;;5.55;2.60;;;8.20;41.50;;;;;;10456503;28;20084;-87
2021/03/20 15:09:08;;;;;;;5.63;2.80;;;8.30;41.60;;;;;;10455272;28;20509;-86
2021/03/20 15:14:13;;;;;;;24.63;4.82;;;8.50;42.30;;;;;;10455382;28;20544;-86
2021/03/20 15:19:15;;;;;;;8.35;2.67;;;8.30;42.10;;;;;;10455421;28;20049;-86
2021/03/20 15:24:18;;;;;;;4.60;2.63;;;8.20;41.60;;;;;;10448807;28;20073;-87
2021/03/20 15:29:19;;;;;;;4.85;2.20;;;8.30;41.70;;;;;;10449986;28;20111;-86
2021/03/20 15:34:20;;;;;;;4.28;2.05;;;8.30;42.50;;;;;;10451240;28;20049;-86
2021/03/20 15:39:22;;;;;;;6.70;3.53;;;8.40;40.90;;;;;;10454140;28;20452;-86
2021/03/20 15:44:23;;;;;;;5.70;2.47;;;8.20;40.60;;;;;;10454142;28;20595;-86
2021/03/20 15:49:25;;;;;;;4.63;2.33;;;8.20;40.00;;;;;;10436326;28;20107;-86
2021/03/20 15:54:29;;;;;;;4.55;2.50;;;8.10;39.10;;;;;;10453862;28;20053;-87
2021/03/20 15:59:33;;;;;;;4.88;2.78;;;7.70;40.00;;;;;;10449973;28;20087;-87
2021/03/20 16:04:35;;;;;;;5.43;2.92;;;7.50;39.40;;;;;;10417208;28;20128;-86
2021/03/20 16:09:37;;;;;;;5.90;2.75;;;7.40;40.50;;;;;;10428397;28;20546;-86
2021/03/20 16:14:39;;;;;;;7.22;2.70;;;7.60;40.70;;;;;;10419508;28;20593;-89
2021/03/20 16:19:43;;;;;;;4.68;2.70;;;7.70;40.30;;;;;;10438376;28;20049;-85
2021/03/20 16:24:45;;;;;;;5.68;2.70;;;7.60;41.80;;;;;;10419786;28;20059;-85
2021/03/20 16:29:49;;;;;;;5.70;2.80;;;7.70;40.20;;;;;;10452446;28;20132;-86
2021/03/20 16:34:50;;;;;;;5.07;2.70;;;7.80;40.80;;;;;;10433669;28;20129;-86
2021/03/20 16:39:52;;;;;;;6.30;3.10;;;7.80;41.50;;;;;;10452880;28;20080;-86
2021/03/20 16:44:53;;;;;;;5.53;3.22;;;7.70;41.90;;;;;;10451046;28;20124;-86
2021/03/20 16:49:56;;;;;;;5.68;3.60;;;7.60;42.50;;;;;;10451800;28;20080;-86
2021/03/20 16:54:58;;;;;;;6.47;3.78;;;7.50;42.80;;;;;;10451668;28;20203;-86
2021/03/20 16:59:59;;;;;;;6.70;4.05;;;7.30;44.30;;;;;;10452340;28;20053;-86
2021/03/20 17:05:01;;;;;;;6.55;4.00;;;7.20;43.80;;;;;;10433402;28;20110;-85
2021/03/20 17:10:04;;;;;;;5.03;3.08;;;7.20;43.90;;;;;;10449545;28;20052;-86
2021/03/20 17:15:06;;;;;;;7.90;3.67;;;7.10;44.20;;;;;;10451823;28;20076;-86
2021/03/20 17:20:11;;;;;;;7.00;4.15;;;7.20;44.40;;;;;;10450826;28;20088;-86
2021/03/20 17:25:14;;;;;;;4.68;2.88;;;7.10;45.10;;;;;;10426620;28;20081;-87
2021/03/20 17:30:16;;;;;;;5.38;3.30;;;6.80;44.30;;;;;;10445301;28;20049;-87
2021/03/20 17:35:18;;;;;;;5.53;3.20;;;6.70;44.80;;;;;;10427790;28;20077;-85
2021/03/20 17:40:24;;;;;;;7.90;4.93;;;6.60;44.50;;;;;;10415243;28;20084;-85
2021/03/20 17:45:26;;;;;;;7.20;3.50;;;6.50;46.00;;;;;;10408785;28;20471;-85
2021/03/20 17:50:36;;;;;;;6.05;3.20;;;6.50;45.90;;;;;;10408183;28;20076;-85
2021/03/20 17:55:40;;;;;;;5.00;3.00;;;6.50;45.70;;;;;;10412320;28;20083;-85
2021/03/20 18:00:44;;;;;;;4.35;3.22;;;6.50;45.70;;;;;;10453872;28;20068;-85
2021/03/20 18:05:46;;;;;;;6.03;3.17;;;6.40;45.90;;;;;;10440265;28;20526;-85
2021/03/20 18:10:56;;;;;;;5.85;3.05;;;6.40;46.00;;;;;;10457270;28;20053;-85
2021/03/20 18:15:59;;;;;;;4.07;2.83;;;6.50;47.20;;;;;;10457752;28;20127;-85
2021/03/20 18:21:06;;;;;;;4.45;2.60;;;6.30;46.00;;;;;;10457511;28;20084;-85
2021/03/20 18:26:07;;;;;;;5.45;3.10;;;6.30;46.00;;;;;;10457766;28;20057;-85
2021/03/20 18:31:19;;;;;;;5.00;3.00;;;6.30;46.50;;;;;;10457450;28;20053;-85
2021/03/20 18:36:21;;;;;;;9.05;3.38;;;6.30;47.10;;;;;;10439279;28;20131;-84
2021/03/20 18:41:25;;;;;;;8.07;3.35;;;6.30;47.50;;;;;;10425698;28;20124;-85
2021/03/20 18:46:26;;;;;;;6.97;3.47;;;6.50;47.10;;;;;;10442549;28;20095;-82
2021/03/20 18:51:28;;;;;;;19.45;10.52;;;6.30;45.20;;;;;;10418014;28;20057;-84
2021/03/20 18:56:32;;;;;;;24.60;13.98;;;6.20;45.70;;;;;;10433874;28;20045;-83
2021/03/20 19:01:33;;;;;;;7.82;3.60;;;6.10;45.50;;;;;;10430287;28;20514;-84
2021/03/20 19:06:36;;;;;;;6.18;3.30;;;6.10;45.30;;;;;;10442881;28;20060;-84
2021/03/20 19:11:38;;;;;;;5.05;3.00;;;6.00;43.90;;;;;;10453028;28;20128;-84
2021/03/20 19:16:39;;;;;;;5.78;3.15;;;6.10;43.70;;;;;;10425872;28;20140;-84
2021/03/20 19:21:42;;;;;;;6.78;3.13;;;5.90;42.80;;;;;;10412328;28;20127;-84
2021/03/20 19:26:43;;;;;;;5.53;3.20;;;5.90;45.20;;;;;;10441240;28;20083;-84
2021/03/20 19:31:45;;;;;;;6.97;3.40;;;6.00;44.80;;;;;;10432807;28;20049;-84
2021/03/20 19:36:47;;;;;;;11.07;3.60;;;5.90;45.30;;;;;;10430036;28;20042;-84
2021/03/20 19:41:49;;;;;;;6.40;3.60;;;5.90;45.00;;;;;;10420939;28;20087;-84
2021/03/20 19:46:54;;;;;;;7.07;3.50;;;5.90;44.90;;;;;;10431822;28;20076;-83
2021/03/20 19:51:58;;;;;;;5.50;3.38;;;5.90;45.20;;;;;;10431016;28;20152;-84
2021/03/20 19:56:59;;;;;;;6.05;2.90;;;5.80;44.70;;;;;;10410686;28;20124;-83
2021/03/20 20:02:01;;;;;;;7.03;3.20;;;5.70;44.70;;;;;;10424789;28;20049;-84
2021/03/20 20:07:03;;;;;;;8.57;3.50;;;5.60;44.40;;;;;;10441856;28;20051;-83
2021/03/20 20:12:06;;;;;;;7.32;3.20;;;5.60;45.40;;;;;;10451016;28;20487;-84
2021/03/20 20:17:09;;;;;;;9.35;3.40;;;5.70;44.70;;;;;;10440709;28;20454;-83
2021/03/20 20:22:11;;;;;;;6.63;3.13;;;5.60;44.60;;;;;;10408360;28;20061;-83
2021/03/20 20:27:12;;;;;;;6.35;3.10;;;5.70;44.60;;;;;;10416254;28;20045;-84
2021/03/20 20:32:17;;;;;;;5.78;3.10;;;5.60;44.70;;;;;;10421735;28;20073;-84
2021/03/20 20:37:19;;;;;;;5.93;3.20;;;5.60;45.00;;;;;;10408791;28;20049;-84
2021/03/20 20:42:20;;;;;;;5.07;2.80;;;5.60;44.80;;;;;;10409102;28;20103;-84
2021/03/20 20:47:22;;;;;;;5.70;3.00;;;5.60;45.20;;;;;;10392505;28;20136;-84
2021/03/20 20:52:24;;;;;;;6.15;2.72;;;5.70;45.40;;;;;;10408362;28;20041;-84
2021/03/20 20:57:27;;;;;;;5.82;2.88;;;5.70;45.40;;;;;;10408110;28;20049;-84
2021/03/20 21:02:29;;;;;;;8.93;3.30;;;5.70;46.30;;;;;;10408047;28;20076;-84
2021/03/20 21:07:31;;;;;;;8.82;3.35;;;5.70;47.00;;;;;;10390954;28;20061;-84
2021/03/20 21:12:33;;;;;;;7.60;3.30;;;5.60;45.80;;;;;;10418965;28;20448;-84
2021/03/20 21:17:36;;;;;;;7.70;3.40;;;5.50;46.80;;;;;;10442678;28;20091;-84
2021/03/20 21:22:38;;;;;;;10.52;3.50;;;5.60;46.70;;;;;;10431066;28;20075;-84
2021/03/20 21:27:40;;;;;;;6.63;3.30;;;5.50;47.40;;;;;;10420682;28;20131;-84
2021/03/20 21:32:42;;;;;;;6.90;3.42;;;5.40;47.20;;;;;;10429865;28;20041;-84
2021/03/20 21:37:44;;;;;;;10.07;3.30;;;5.40;47.70;;;;;;10448394;28;20446;-84
2021/03/20 21:42:46;;;;;;;5.20;3.30;;;5.50;47.80;;;;;;10447633;28;20053;-84
2021/03/20 21:47:51;;;;;;;8.05;3.50;;;5.50;48.00;;;;;;10448149;28;20049;-84
2021/03/20 21:52:53;;;;;;;8.00;3.42;;;5.50;48.00;;;;;;10448384;28;20106;-84
2021/03/20 21:57:56;;;;;;;6.47;3.42;;;5.60;48.10;;;;;;10447380;28;20049;-84
2021/03/20 22:02:58;;;;;;;5.43;3.03;;;5.60;48.20;;;;;;10421770;28;20057;-83
2021/03/20 22:07:59;;;;;;;8.45;4.00;;;5.60;48.50;;;;;;10407171;28;20065;-84
2021/03/20 22:13:01;;;;;;;7.00;3.75;;;5.60;48.80;;;;;;10408970;28;20660;-83
2021/03/20 22:18:04;;;;;;;7.63;3.58;;;5.60;48.70;;;;;;10430467;28;20049;-84
2021/03/20 22:23:08;;;;;;;6.75;3.33;;;5.50;48.90;;;;;;10425479;28;20418;-83
2021/03/20 22:28:15;;;;;;;8.82;3.50;;;5.50;49.50;;;;;;10426086;28;20049;-83
2021/03/20 22:33:17;;;;;;;10.45;3.95;;;5.50;49.80;;;;;;10406882;28;20552;-83
2021/03/20 22:38:19;;;;;;;9.13;3.60;;;5.30;49.90;;;;;;10412555;28;20056;-83
2021/03/20 22:43:21;;;;;;;7.63;3.70;;;5.20;50.20;;;;;;10443927;28;20053;-83
2021/03/20 22:48:24;;;;;;;7.75;3.60;;;5.20;50.30;;;;;;10449871;28;20449;-84
2021/03/20 22:53:26;;;;;;;8.52;3.50;;;5.20;51.00;;;;;;10428655;28;20049;-84
2021/03/20 22:58:35;;;;;;;7.13;3.83;;;5.20;51.30;;;;;;10452325;28;20485;-83
2021/03/20 23:03:38;;;;;;;8.60;3.83;;;5.20;50.50;;;;;;10452094;28;20072;-83
2021/03/20 23:08:44;;;;;;;6.32;3.80;;;5.20;51.10;;;;;;10434515;28;20140;-83
2021/03/20 23:13:46;;;;;;;6.97;3.63;;;5.10;50.60;;;;;;10451465;28;20048;-83
2021/03/20 23:18:48;;;;;;;6.45;3.50;;;5.10;50.80;;;;;;10433729;28;20045;-83
2021/03/20 23:23:50;;;;;;;7.80;3.70;;;5.20;50.70;;;;;;10451117;28;20048;-83
2021/03/20 23:29:03;;;;;;;17.03;9.40;;;5.10;51.20;;;;;;10449641;28;20060;-83
2021/03/20 23:34:05;;;;;;;10.73;7.88;;;5.00;51.40;;;;;;10448303;28;20056;-83
2021/03/20 23:39:08;;;;;;;5.68;3.50;;;5.10;51.50;;;;;;10422286;28;20045;-83
2021/03/20 23:44:11;;;;;;;5.90;3.75;;;5.20;51.50;;;;;;10424795;28;20057;-83
2021/03/20 23:49:14;;;;;;;7.30;3.42;;;5.20;51.70;;;;;;10428547;28;20045;-83
2021/03/20 23:54:16;;;;;;;7.88;3.83;;;5.10;52.10;;;;;;10412907;28;20132;-83
2021/03/20 23:59:23;;;;;;;7.45;5.03;;;5.10;51.50;;;;;;10438941;28;20048;-83
